Time;durP1;ratioP1;P1;durP2;ratioP2;P2;SDS_P1;SDS_P2;PMS_P1;PMS_P2;Temp;Humidity;BMP_temperature;BMP_pressure;BME280_temperature;BME280_humidity;BME280_pressure;Samples;Min_cycle;Max_cycle;Signal;HPM_P1;HPM_P2
2023/11/04 00:00:33;;;;;;;5.38;2.58;;;12.60;99.90;;;;;;5049693;28;20040;-67
2023/11/04 00:03:19;;;;;;;7.32;2.70;;;12.60;99.80;;;;;;5064024;28;20049;-67
2023/11/04 00:06:05;;;;;;;5.95;2.60;;;12.60;99.80;;;;;;5064717;28;20033;-67
2023/11/04 00:08:52;;;;;;;7.53;2.75;;;12.60;99.90;;;;;;5059719;28;20057;-67
2023/11/04 00:11:38;;;;;;;5.55;2.38;;;12.60;99.80;;;;;;5050083;28;20048;-67
2023/11/04 00:14:24;;;;;;;10.23;3.10;;;12.60;99.70;;;;;;5069687;28;20080;-68
2023/11/04 00:17:09;;;;;;;7.30;2.60;;;12.60;99.80;;;;;;5064115;28;20132;-68
2023/11/04 00:19:56;;;;;;;5.43;2.00;;;12.50;99.80;;;;;;5049144;28;20091;-67
2023/11/04 00:22:42;;;;;;;6.57;2.45;;;12.50;99.80;;;;;;5056910;28;20050;-68
2023/11/04 00:25:28;;;;;;;5.18;2.10;;;12.50;99.90;;;;;;5067916;28;20048;-67
2023/11/04 00:28:15;;;;;;;5.75;2.35;;;12.50;99.70;;;;;;5070327;28;20055;-68
2023/11/04 00:31:01;;;;;;;10.02;3.15;;;12.50;99.70;;;;;;5049030;28;20453;-68
2023/11/04 00:33:48;;;;;;;10.35;3.88;;;12.50;99.70;;;;;;5050498;28;20076;-68
2023/11/04 00:36:34;;;;;;;9.13;2.75;;;12.40;99.60;;;;;;5049573;28;20040;-68
2023/11/04 00:39:20;;;;;;;8.70;3.03;;;12.40;99.60;;;;;;5054698;28;20402;-68
2023/11/04 00:42:07;;;;;;;4.95;2.42;;;12.30;99.60;;;;;;5049944;28;20422;-68
2023/11/04 00:44:52;;;;;;;8.35;3.17;;;12.30;99.60;;;;;;5049679;28;20561;-68
2023/11/04 00:47:38;;;;;;;5.25;2.42;;;12.30;99.60;;;;;;5049581;28;20056;-68
2023/11/04 00:50:24;;;;;;;6.85;2.72;;;12.30;99.80;;;;;;5048897;28;20041;-69
2023/11/04 00:53:10;;;;;;;7.47;2.78;;;12.20;99.60;;;;;;5051799;28;20137;-68
2023/11/04 00:55:56;;;;;;;7.40;2.67;;;12.20;99.80;;;;;;5055106;28;20036;-68
2023/11/04 00:58:42;;;;;;;6.40;2.22;;;12.10;99.50;;;;;;5062508;28;20470;-68
2023/11/04 01:01:28;;;;;;;6.07;2.45;;;12.10;99.50;;;;;;5054280;28;20041;-69
2023/11/04 01:04:15;;;;;;;7.38;2.28;;;12.10;99.50;;;;;;5053004;28;20060;-69
2023/11/04 01:07:00;;;;;;;5.05;2.08;;;12.10;99.60;;;;;;5038714;28;20474;-69
2023/11/04 01:09:46;;;;;;;3.10;2.05;;;12.10;99.60;;;;;;5066281;28;20474;-69
2023/11/04 01:12:32;;;;;;;6.85;2.55;;;12.00;99.70;;;;;;5053651;28;20450;-69
2023/11/04 01:15:18;;;;;;;4.90;2.63;;;12.00;99.50;;;;;;5067408;28;20117;-69
2023/11/04 01:18:04;;;;;;;4.82;2.13;;;12.00;99.50;;;;;;5072975;28;20028;-69
2023/11/04 01:20:50;;;;;;;5.00;2.22;;;11.90;99.60;;;;;;5055171;28;20040;-69
2023/11/04 01:23:36;;;;;;;4.78;1.83;;;11.90;99.50;;;;;;5051227;28;20052;-69
2023/11/04 01:26:22;;;;;;;12.43;2.50;;;11.90;99.50;;;;;;5051561;28;20124;-71
2023/11/04 01:29:10;;;;;;;5.78;2.15;;;11.90;99.50;;;;;;5051788;28;20511;-70
2023/11/04 01:31:56;;;;;;;7.88;2.55;;;11.90;99.50;;;;;;5051994;28;20114;-69
2023/11/04 01:34:42;;;;;;;6.00;2.50;;;11.80;99.50;;;;;;5051621;28;20029;-68
2023/11/04 01:37:28;;;;;;;4.10;1.92;;;11.80;99.50;;;;;;5051922;28;20052;-69
2023/11/04 01:40:14;;;;;;;4.97;2.03;;;11.80;99.50;;;;;;5052360;28;20128;-67
2023/11/04 01:43:00;;;;;;;7.82;2.78;;;11.80;99.60;;;;;;5058513;28;20121;-67
2023/11/04 01:45:46;;;;;;;12.68;3.78;;;11.80;99.60;;;;;;5072412;28;20472;-70
2023/11/04 01:48:32;;;;;;;5.95;2.15;;;11.80;99.60;;;;;;5072167;28;20459;-71
2023/11/04 01:51:19;;;;;;;5.85;1.90;;;11.70;99.60;;;;;;5060480;28;20247;-70
2023/11/04 01:54:05;;;;;;;5.22;2.30;;;11.70;99.80;;;;;;5051040;28;20047;-70
2023/11/04 01:56:52;;;;;;;7.88;2.17;;;11.70;99.60;;;;;;5050945;28;20041;-70
2023/11/04 01:59:38;;;;;;;7.53;2.78;;;11.60;99.60;;;;;;5051404;28;20123;-71
2023/11/04 02:02:25;;;;;;;6.10;2.08;;;11.60;99.50;;;;;;5052910;28;20052;-71
2023/11/04 02:05:11;;;;;;;5.70;2.25;;;11.50;99.50;;;;;;5050541;28;20041;-71
2023/11/04 02:07:59;;;;;;;5.75;2.47;;;11.50;99.50;;;;;;5050460;28;20052;-71
2023/11/04 02:10:45;;;;;;;4.38;1.83;;;11.50;99.50;;;;;;5064561;28;20049;-71
2023/11/04 02:13:31;;;;;;;5.18;1.95;;;11.50;99.40;;;;;;5062811;28;20048;-71
2023/11/04 02:16:17;;;;;;;7.00;2.25;;;11.40;99.40;;;;;;5065214;28;20098;-72
2023/11/04 02:19:04;;;;;;;5.95;2.35;;;11.40;99.40;;;;;;5070028;28;20178;-70
2023/11/04 02:21:50;;;;;;;6.03;2.13;;;11.30;99.40;;;;;;5071755;28;20529;-71
2023/11/04 02:24:37;;;;;;;6.00;2.22;;;11.30;99.40;;;;;;5051378;28;20553;-71
2023/11/04 02:27:23;;;;;;;5.85;2.00;;;11.20;99.40;;;;;;5051618;28;20056;-71
2023/11/04 02:30:11;;;;;;;7.05;2.80;;;11.20;99.50;;;;;;5061097;28;20277;-71
2023/11/04 02:32:57;;;;;;;6.88;2.47;;;11.10;99.50;;;;;;5050687;28;20045;-71
2023/11/04 02:35:44;;;;;;;5.68;2.33;;;11.10;99.60;;;;;;5051304;28;20132;-74
2023/11/04 02:38:30;;;;;;;6.75;2.25;;;11.00;99.60;;;;;;5049527;28;20041;-73
2023/11/04 02:41:16;;;;;;;6.13;2.45;;;11.00;99.60;;;;;;5051340;28;20041;-73
2023/11/04 02:44:02;;;;;;;5.82;2.17;;;10.90;99.70;;;;;;5050708;28;20049;-73
2023/11/04 02:46:49;;;;;;;4.38;2.00;;;10.90;99.70;;;;;;5054054;28;20052;-73
2023/11/04 02:49:35;;;;;;;4.45;2.13;;;10.90;99.70;;;;;;5064208;28;20456;-73
2023/11/04 02:52:21;;;;;;;7.70;2.50;;;10.80;99.70;;;;;;5051893;28;20045;-73
2023/11/04 02:55:07;;;;;;;6.97;3.03;;;10.80;99.70;;;;;;5051180;28;20037;-73
2023/11/04 02:57:53;;;;;;;5.50;2.33;;;10.70;99.70;;;;;;5050921;28;20040;-73
2023/11/04 03:00:39;;;;;;;5.75;2.13;;;10.70;99.70;;;;;;5050349;28;20044;-73
2023/11/04 03:03:25;;;;;;;6.45;2.38;;;10.70;99.70;;;;;;5050852;28;20052;-73
2023/11/04 03:06:20;;;;;;;5.32;1.80;;;10.70;99.70;;;;;;5054132;28;20071;-73
2023/11/04 03:09:06;;;;;;;8.13;2.53;;;10.60;99.70;;;;;;5050252;28;20175;-73
2023/11/04 03:11:54;;;;;;;5.03;2.70;;;10.60;99.60;;;;;;5050879;28;20036;-73
2023/11/04 03:14:46;;;;;;;7.15;2.85;;;10.60;99.70;;;;;;5050165;28;20041;-72
2023/11/04 03:17:32;;;;;;;5.32;2.00;;;10.50;99.70;;;;;;5050664;28;20128;-72
2023/11/04 03:20:19;;;;;;;4.43;2.83;;;10.50;99.70;;;;;;5065131;28;20045;-74
2023/11/04 03:23:05;;;;;;;5.30;2.10;;;10.40;99.70;;;;;;5067994;28;20076;-75
2023/11/04 03:25:51;;;;;;;3.58;1.80;;;10.40;99.70;;;;;;5058437;28;20041;-74
2023/11/04 03:28:37;;;;;;;4.70;1.77;;;10.40;99.70;;;;;;5057699;28;20049;-73
2023/11/04 03:31:23;;;;;;;11.95;2.90;;;10.40;99.80;;;;;;5050231;28;20053;-74
2023/11/04 03:34:09;;;;;;;7.63;2.45;;;10.30;99.80;;;;;;5050463;28;20076;-74
2023/11/04 03:36:55;;;;;;;6.45;2.60;;;10.30;99.80;;;;;;5049632;28;20463;-74
2023/11/04 03:39:41;;;;;;;4.95;2.00;;;10.30;99.90;;;;;;5052566;28;20049;-73
2023/11/04 03:42:27;;;;;;;5.15;2.20;;;10.30;99.90;;;;;;5053262;28;20044;-73
2023/11/04 03:45:13;;;;;;;5.93;2.50;;;10.30;99.80;;;;;;5049608;28;20128;-72
2023/11/04 03:47:59;;;;;;;6.10;2.25;;;10.20;99.80;;;;;;5065755;28;20493;-73
2023/11/04 03:50:45;;;;;;;5.65;2.05;;;10.20;99.80;;;;;;5067769;28;20533;-72
2023/11/04 03:53:31;;;;;;;6.10;1.98;;;10.20;99.80;;;;;;5069788;28;20182;-73
2023/11/04 03:56:17;;;;;;;4.38;2.20;;;10.20;99.80;;;;;;5070664;28;20457;-73
2023/11/04 03:59:03;;;;;;;4.50;2.05;;;10.20;99.80;;;;;;5045917;28;20450;-74
2023/11/04 04:01:49;;;;;;;14.70;2.83;;;10.10;99.80;;;;;;5057322;28;20040;-74
2023/11/04 04:04:35;;;;;;;5.65;1.75;;;10.10;99.80;;;;;;5068060;28;20132;-73
2023/11/04 04:07:21;;;;;;;5.65;3.17;;;10.10;99.80;;;;;;5070118;28;20037;-73
2023/11/04 04:10:07;;;;;;;7.40;2.65;;;10.00;99.90;;;;;;5069959;28;20466;-73
2023/11/04 04:12:54;;;;;;;4.85;2.25;;;10.00;99.90;;;;;;5069729;28;20151;-72
2023/11/04 04:15:41;;;;;;;6.65;2.42;;;10.00;99.90;;;;;;5060399;28;20083;-73
2023/11/04 04:18:27;;;;;;;4.53;1.90;;;9.90;99.90;;;;;;5063320;28;20044;-72
2023/11/04 04:21:16;;;;;;;5.13;1.90;;;9.90;99.90;;;;;;5067682;28;20052;-74
2023/11/04 04:24:02;;;;;;;3.47;1.90;;;9.90;99.90;;;;;;5053666;28;20053;-75
2023/11/04 04:26:48;;;;;;;4.55;2.13;;;9.90;99.90;;;;;;5051522;28;20044;-76
2023/11/04 04:29:34;;;;;;;5.35;2.33;;;9.80;99.90;;;;;;5055789;28;20047;-76
2023/11/04 04:32:20;;;;;;;5.53;2.35;;;9.70;99.90;;;;;;5057916;28;20312;-75
2023/11/04 04:35:06;;;;;;;4.95;2.10;;;9.70;99.90;;;;;;5061158;28;20052;-76
2023/11/04 04:37:52;;;;;;;4.30;1.95;;;9.70;99.90;;;;;;5056116;28;20045;-76
2023/11/04 04:40:38;;;;;;;3.67;1.83;;;9.70;99.90;;;;;;5071244;28;20094;-75
2023/11/04 04:43:24;;;;;;;4.15;1.55;;;9.60;99.90;;;;;;5075965;28;20084;-74
2023/11/04 04:46:11;;;;;;;6.07;2.55;;;9.60;99.90;;;;;;5074343;28;20037;-75
2023/11/04 04:48:56;;;;;;;5.38;1.77;;;9.60;99.90;;;;;;5074458;28;20053;-74
2023/11/04 04:51:43;;;;;;;5.57;2.00;;;9.60;99.90;;;;;;5072402;28;20127;-75
2023/11/04 04:54:29;;;;;;;7.40;2.78;;;9.60;99.90;;;;;;5076064;28;20040;-75
2023/11/04 04:57:15;;;;;;;4.38;2.58;;;9.60;99.90;;;;;;5073212;28;20064;-74
2023/11/04 05:00:04;;;;;;;7.35;2.50;;;9.50;99.90;;;;;;5074029;28;20036;-74
2023/11/04 05:02:50;;;;;;;5.05;1.85;;;9.50;99.90;;;;;;5070098;28;20044;-74
2023/11/04 05:05:36;;;;;;;7.65;2.67;;;9.50;99.90;;;;;;5056629;28;20411;-73
2023/11/04 05:08:22;;;;;;;3.95;2.15;;;9.40;99.90;;;;;;5057149;28;20048;-73
2023/11/04 05:11:08;;;;;;;5.40;2.28;;;9.40;99.90;;;;;;5075116;28;20036;-74
2023/11/04 05:13:54;;;;;;;7.93;3.08;;;9.40;99.90;;;;;;5075788;28;20067;-74
2023/11/04 05:16:40;;;;;;;5.43;2.50;;;9.40;99.90;;;;;;5075828;28;20040;-74
2023/11/04 05:19:26;;;;;;;7.93;3.67;;;9.30;99.90;;;;;;5060229;28;20104;-74
2023/11/04 05:22:12;;;;;;;7.60;2.00;;;9.40;99.90;;;;;;5055139;28;20095;-73
2023/11/04 05:24:58;;;;;;;7.60;2.38;;;9.40;99.90;;;;;;5054610;28;20509;-73
2023/11/04 05:27:45;;;;;;;5.07;2.15;;;9.40;99.90;;;;;;5054470;28;20033;-73
